createdAt,value
2022-08-26T00:01:35.726Z,-25.6
2022-08-26T00:03:36.805Z,-25.6
2022-08-26T00:05:38.367Z,-25.7
2022-08-26T00:07:39.917Z,-25.6
2022-08-26T00:09:40.903Z,-25.5
2022-08-26T00:11:42.121Z,-25.8
2022-08-26T00:13:46.539Z,-25.6
2022-08-26T00:15:44.674Z,-25.7
2022-08-26T00:17:45.973Z,-25.5
2022-08-26T00:19:47.510Z,-25.7
2022-08-26T00:25:52.607Z,-25.7
2022-08-26T00:27:54.299Z,-25.7
2022-08-26T00:29:55.219Z,-25.8
2022-08-26T00:33:57.767Z,-25.7
2022-08-26T00:40:05.015Z,-25.6
2022-08-26T00:42:03.276Z,-25.7
2022-08-26T00:44:04.367Z,-25.6
2022-08-26T00:46:05.685Z,-25.6
2022-08-26T00:48:06.872Z,-25.6
2022-08-26T00:50:08.572Z,-25.7
2022-08-26T00:52:09.971Z,-25.7
2022-08-26T00:54:11.169Z,-25.7
2022-08-26T00:56:12.444Z,-26
2022-08-26T00:58:13.735Z,-25.7
2022-08-26T01:00:15.344Z,-25.6
2022-08-26T01:04:18.374Z,-25.6
2022-08-26T01:06:20.058Z,-25.6
2022-08-26T01:08:21.458Z,-25.6
2022-08-26T01:12:24.253Z,-25.6
2022-08-26T01:14:25.689Z,-25.8
2022-08-26T01:16:27.233Z,-25.7
2022-08-26T01:18:28.651Z,-25.8
2022-08-26T01:20:30.206Z,-25.7
2022-08-26T01:24:33.081Z,-25.8
2022-08-26T01:26:34.043Z,-25.7
2022-08-26T01:28:35.027Z,-25.7
2022-08-26T01:30:36.258Z,-25.5
2022-08-26T01:32:38.926Z,-25.8
2022-08-26T01:34:38.757Z,-25.7
2022-08-26T01:40:43.171Z,-25.7
2022-08-26T01:42:44.747Z,-25.8
2022-08-26T01:44:46.195Z,-25.5
2022-08-26T01:46:47.810Z,-25.7
2022-08-26T01:48:49.623Z,-25.9
2022-08-26T01:50:51.082Z,-25.6
2022-08-26T01:52:54.231Z,-25.7
2022-08-26T01:54:54.274Z,-25.5
2022-08-26T01:56:55.824Z,-25.5
2022-08-26T02:00:59.011Z,-25.5
2022-08-26T02:03:00.375Z,-25.4
2022-08-26T02:05:01.804Z,-25.7
2022-08-26T02:07:02.932Z,-25.6
2022-08-26T02:09:04.783Z,-25.9
2022-08-26T02:11:06.506Z,-25.8
2022-08-26T02:13:08.300Z,-25.6
2022-08-26T02:15:09.119Z,-25.9
2022-08-26T02:17:10.060Z,-25.7
2022-08-26T02:19:11.714Z,-25.7
2022-08-26T02:19:55.377Z,-25.5
2022-08-26T02:23:57.754Z,-25.8
2022-08-26T02:25:59.171Z,-25.9
2022-08-26T02:28:00.535Z,-25.6
2022-08-26T02:32:03.215Z,-25.7
2022-08-26T02:34:05.076Z,-25.7
2022-08-26T02:36:06.086Z,-25.7
2022-08-26T02:38:09.990Z,-25.7
2022-08-26T02:40:08.654Z,-25.6
2022-08-26T02:44:12.043Z,-25.5
2022-08-26T02:48:14.213Z,-25.7
2022-08-26T02:50:16.061Z,-25.6
2022-08-26T02:52:17.236Z,-25.8
2022-08-26T02:56:19.942Z,-25.7
2022-08-26T03:00:22.703Z,-25.8
2022-08-26T03:02:24.215Z,-25.7
2022-08-26T03:04:25.673Z,-26.2
2022-08-26T03:06:26.935Z,-25.8
2022-08-26T03:08:28.201Z,-26
2022-08-26T03:14:32.425Z,-26.2
2022-08-26T03:16:33.702Z,-26.1
2022-08-26T03:18:35.475Z,-25.9
2022-08-26T03:20:37.180Z,-26.1
2022-08-26T03:22:39.046Z,-25.9
2022-08-26T03:24:40.122Z,-26.1
2022-08-26T03:26:41.386Z,-25.8
2022-08-26T03:28:42.700Z,-26
2022-08-26T03:32:45.342Z,-26.1
2022-08-26T03:34:46.914Z,-26
2022-08-26T03:36:47.954Z,-26.2
2022-08-26T03:38:49.677Z,-26.1
2022-08-26T03:40:50.802Z,-26.1
2022-08-26T03:42:51.985Z,-26.1
2022-08-26T03:44:53.532Z,-26
2022-08-26T03:46:54.702Z,-26
2022-08-26T03:48:55.487Z,-26
2022-08-26T03:50:56.957Z,-25.8
2022-08-26T03:54:59.929Z,-26.1
2022-08-26T03:57:01.068Z,-26
2022-08-26T03:59:02.466Z,-26
2022-08-26T04:01:03.409Z,-25.8
2022-08-26T04:03:05.017Z,-26.3
2022-08-26T04:05:06.636Z,-26
2022-08-26T04:07:07.801Z,-26.1
2022-08-26T04:09:09.618Z,-26
2022-08-26T04:13:12.081Z,-26.2
2022-08-26T04:15:13.097Z,-26
2022-08-26T04:17:14.486Z,-26.2
2022-08-26T04:19:16.083Z,-25.8
2022-08-26T04:21:25.472Z,-26.1
2022-08-26T04:23:18.406Z,-25.9
2022-08-26T04:25:20.455Z,-26
2022-08-26T04:27:20.940Z,-25.8
2022-08-26T04:29:22.297Z,-25.9
2022-08-26T04:31:24.185Z,-26
2022-08-26T04:35:27.005Z,-25.9
2022-08-26T04:37:28.014Z,-25.8
2022-08-26T04:39:29.207Z,-25.9
2022-08-26T04:41:31.603Z,-25.8
2022-08-26T04:43:31.373Z,-25.6
2022-08-26T04:45:32.319Z,-25.8
2022-08-26T04:47:33.733Z,-25.9
2022-08-26T04:49:35.744Z,-25.8
2022-08-26T04:51:36.998Z,-25.8
2022-08-26T04:53:38.096Z,-25.9
2022-08-26T04:55:39.915Z,-25.9
2022-08-26T04:57:40.459Z,-25.9
2022-08-26T04:59:41.489Z,-25.9
2022-08-26T05:01:43.355Z,-26
2022-08-26T05:03:44.433Z,-25.9
2022-08-26T05:07:47.535Z,-25.8
2022-08-26T05:09:49.353Z,-26
2022-08-26T05:11:51.965Z,-26
2022-08-26T05:13:51.225Z,-25.7
2022-08-26T05:15:53.372Z,-25.8
2022-08-26T05:17:54.445Z,-25.8
2022-08-26T05:19:55.590Z,-25.8
2022-08-26T05:21:56.566Z,-25.7
2022-08-26T05:24:05.928Z,-25.2
2022-08-26T05:28:00.446Z,-11.7
2022-08-26T05:30:01.312Z,-9.6
2022-08-26T05:32:02.423Z,-6.9
2022-08-26T05:36:04.730Z,-3.9
2022-08-26T05:38:09.268Z,0.1
2022-08-26T05:42:09.173Z,9.39
2022-08-26T05:44:10.634Z,13.7
2022-08-26T05:46:12.178Z,15.3
2022-08-26T05:48:13.156Z,17.2
2022-08-26T05:50:14.899Z,19.9
2022-08-26T05:54:21.242Z,24.6
2022-08-26T05:56:19.151Z,27.3
2022-08-26T05:58:20.205Z,30.9
2022-08-26T06:02:22.382Z,38.9
2022-08-26T06:04:23.280Z,43.3
2022-08-26T06:06:27.277Z,46.5
2022-08-26T06:08:26.025Z,50.5
2022-08-26T06:10:33.323Z,54.7
2022-08-26T06:12:28.625Z,59.9
2022-08-26T06:14:29.599Z,74.8
2022-08-26T06:16:31.107Z,73.9
2022-08-26T06:22:35.069Z,71.6
2022-08-26T06:24:36.710Z,71
2022-08-26T06:26:37.960Z,69.8
2022-08-26T06:28:39.489Z,69.19
2022-08-26T06:30:40.553Z,68.19
2022-08-26T06:32:41.526Z,67.4
2022-08-26T06:34:43.868Z,66.5
2022-08-26T06:36:44.666Z,65.3
2022-08-26T06:38:46.179Z,64
2022-08-26T06:40:47.312Z,62.9
2022-08-26T06:42:48.371Z,61.5
2022-08-26T06:44:50.045Z,60.8
2022-08-26T06:46:51.564Z,59.6
2022-08-26T06:48:53.093Z,57.5
2022-08-26T06:50:54.511Z,55.8
2022-08-26T06:52:55.634Z,54.7
2022-08-26T06:54:56.902Z,53.1
2022-08-26T06:58:59.869Z,48.9
2022-08-26T07:01:03.832Z,47.9
2022-08-26T07:03:02.251Z,46.7
2022-08-26T07:05:03.102Z,45.1
2022-08-26T07:07:04.528Z,43.3
2022-08-26T07:09:06.261Z,40.8
2022-08-26T07:11:07.897Z,39.5
2022-08-26T07:13:09.561Z,36.59
2022-08-26T07:17:13.886Z,35.5
2022-08-26T07:19:13.797Z,32.8
2022-08-26T07:21:14.732Z,30.5
2022-08-26T07:23:16.354Z,29.3
2022-08-26T07:25:17.546Z,30
2022-08-26T07:27:18.777Z,25.6
2022-08-26T07:29:19.659Z,24.9
2022-08-26T07:31:21.111Z,23.5
2022-08-26T07:33:22.688Z,22.5
2022-08-26T07:35:24.403Z,21.2
2022-08-26T07:39:26.625Z,17.2
2022-08-26T07:43:29.266Z,16.79
2022-08-26T07:45:30.864Z,16.5
2022-08-26T07:47:32.342Z,13.9
2022-08-26T07:51:34.905Z,12.1
2022-08-26T07:53:36.305Z,11.3
2022-08-26T07:55:37.979Z,11.2
2022-08-26T07:59:40.878Z,9.8
2022-08-26T08:03:42.845Z,-25.4
2022-08-26T08:05:44.189Z,-25.4
2022-08-26T08:07:45.750Z,-25.3
2022-08-26T08:09:46.742Z,-25.8
2022-08-26T08:11:48.344Z,-25.6
2022-08-26T08:13:49.923Z,-25.8
2022-08-26T08:15:50.761Z,-25.4
2022-08-26T08:17:52.121Z,-25.4
2022-08-26T08:19:53.027Z,-25.3
2022-08-26T08:21:54.614Z,-25.6
2022-08-26T08:23:55.653Z,-25.5
2022-08-26T08:25:57.143Z,-25.6
2022-08-26T08:27:58.736Z,-25.4
2022-08-26T08:30:00.235Z,-25.6
2022-08-26T08:32:02.054Z,-25.5
2022-08-26T08:34:03.421Z,-25.4
2022-08-26T08:36:04.833Z,-25.6
2022-08-26T08:38:06.528Z,-25.7
2022-08-26T08:44:10.194Z,-25.5
2022-08-26T08:46:11.711Z,-25.6
2022-08-26T08:48:12.463Z,-25.4
2022-08-26T08:50:13.603Z,-25.3
2022-08-26T08:52:14.800Z,-25.4
2022-08-26T08:54:16.117Z,-25.5
2022-08-26T08:56:17.153Z,-25.7
2022-08-26T09:02:20.973Z,-25.7
2022-08-26T09:04:21.811Z,-25.6
2022-08-26T09:05:05.450Z,-25.6
2022-08-26T09:09:08.251Z,-25.5
2022-08-26T09:15:12.538Z,-25.6
2022-08-26T09:17:13.461Z,-25.4
2022-08-26T09:19:15.147Z,-25.6
2022-08-26T09:21:16.098Z,-25.8
2022-08-26T09:23:17.122Z,-25.6
2022-08-26T09:25:18.077Z,-25.6
2022-08-26T09:27:19.465Z,-25.5
2022-08-26T09:31:22.127Z,-25.5
2022-08-26T09:35:24.036Z,-25.5
2022-08-26T09:39:26.580Z,-25.7
2022-08-26T09:41:27.932Z,-25.5
2022-08-26T09:43:28.943Z,-25.4
2022-08-26T09:45:30.002Z,-25.6
2022-08-26T09:47:31.591Z,-25.4
2022-08-26T09:49:35.691Z,-25.5
2022-08-26T09:51:33.893Z,-25.5
2022-08-26T09:53:34.865Z,-25.4
2022-08-26T09:55:35.834Z,-25.4
2022-08-26T09:57:36.900Z,-25.6
2022-08-26T09:59:38.330Z,-25.7
2022-08-26T10:01:39.220Z,-25.5
2022-08-26T10:03:40.356Z,-25.3
2022-08-26T10:05:41.848Z,-25.5
2022-08-26T10:07:43.221Z,-25.5
2022-08-26T10:09:44.334Z,-25.6
2022-08-26T10:11:45.661Z,-25.5
2022-08-26T10:13:46.662Z,-25.5
2022-08-26T10:15:50.622Z,-25.3
2022-08-26T10:17:49.420Z,-25.3
2022-08-26T10:19:56.355Z,-25.7
2022-08-26T10:21:52.228Z,-25.4
2022-08-26T10:23:53.215Z,-25.5
2022-08-26T10:25:54.180Z,-25.5
2022-08-26T10:27:55.405Z,-25.7
2022-08-26T10:29:56.177Z,-25.5
2022-08-26T10:31:58.738Z,-25.5
2022-08-26T10:34:00.279Z,-25.5
2022-08-26T10:36:00.212Z,-25.4
2022-08-26T10:38:01.769Z,-25.6
2022-08-26T10:40:03.443Z,-25.7
2022-08-26T10:42:04.659Z,-25.6
2022-08-26T10:44:06.267Z,-25.5
2022-08-26T10:46:07.245Z,-25.3
2022-08-26T10:48:08.724Z,-25.3
2022-08-26T10:50:09.619Z,-25.4
2022-08-26T10:52:12.164Z,-25.7
2022-08-26T10:54:12.105Z,-25.3
2022-08-26T10:56:15.971Z,-25.4
2022-08-26T10:58:14.603Z,-25.5
2022-08-26T11:04:18.491Z,-25.4
2022-08-26T11:06:19.886Z,-25.5
2022-08-26T11:08:20.817Z,-25.4
2022-08-26T11:10:22.030Z,-25.5
2022-08-26T11:12:23.311Z,-25.3
2022-08-26T11:14:28.622Z,-25.5
2022-08-26T11:16:26.447Z,-25.4
2022-08-26T11:18:27.395Z,-25.6
2022-08-26T11:20:28.714Z,-25.6
2022-08-26T11:22:30.000Z,-25.5
2022-08-26T11:24:31.400Z,-25.5
2022-08-26T11:26:35.504Z,-25.5
2022-08-26T11:28:33.926Z,-25.7
2022-08-26T11:30:35.315Z,-25.7
2022-08-26T11:32:36.402Z,-25.6
2022-08-26T11:34:37.940Z,-25.4
2022-08-26T11:36:39.545Z,-25.6
2022-08-26T11:38:40.496Z,-25.8
2022-08-26T11:40:41.394Z,-25.6
2022-08-26T11:42:43.004Z,-25.4
2022-08-26T11:44:49.041Z,-25.7
2022-08-26T11:46:45.882Z,-25.7
2022-08-26T11:48:46.778Z,-25.3
2022-08-26T11:50:47.624Z,-25.4
2022-08-26T11:52:48.495Z,-25.6
2022-08-26T11:56:51.133Z,-25.9
2022-08-26T11:58:52.865Z,-25.5
2022-08-26T12:00:54.584Z,-25.2
2022-08-26T12:02:56.226Z,-25.3
2022-08-26T12:04:57.201Z,-25.4
2022-08-26T12:06:58.938Z,-25.5
2022-08-26T12:09:00.136Z,-25.6
2022-08-26T12:11:01.152Z,-25.7
2022-08-26T12:13:02.566Z,-25.2
2022-08-26T12:15:03.696Z,-25.5
2022-08-26T12:17:05.010Z,-25.7
2022-08-26T12:19:06.026Z,-25.6
2022-08-26T12:21:07.156Z,-25.6
2022-08-26T12:23:08.300Z,-25.5
2022-08-26T12:25:09.929Z,-25.4
2022-08-26T12:29:19.973Z,-25.4
2022-08-26T12:33:22.634Z,-25.5
2022-08-26T12:35:16.198Z,-25.5
2022-08-26T12:39:18.012Z,-25.6
2022-08-26T12:41:19.049Z,-25.5
2022-08-26T12:43:20.211Z,-25.1
2022-08-26T12:51:24.520Z,-25.5
2022-08-26T12:53:25.841Z,-25.6
2022-08-26T12:55:27.200Z,-25.7
2022-08-26T12:57:28.744Z,-25.7
2022-08-26T12:59:30.427Z,-25.8
2022-08-26T13:01:31.602Z,-25.6
2022-08-26T13:03:32.780Z,-25.8
2022-08-26T13:05:33.825Z,-25.6
2022-08-26T13:07:34.846Z,-25.5
2022-08-26T13:09:36.602Z,-25.5
2022-08-26T13:11:37.817Z,-25.4
2022-08-26T13:13:39.341Z,-25.3
2022-08-26T13:15:40.621Z,-25.5
2022-08-26T13:17:41.920Z,-25.3
2022-08-26T13:19:42.724Z,-25.3
2022-08-26T13:21:44.147Z,-25.4
2022-08-26T13:23:44.963Z,-25.8
2022-08-26T13:27:48.014Z,-25.4
2022-08-26T13:29:49.049Z,-25.4
2022-08-26T13:31:50.438Z,-25.5
2022-08-26T13:33:52.006Z,26.4
2022-08-26T13:35:53.317Z,22.1
2022-08-26T13:37:54.259Z,20.9
2022-08-26T13:39:55.126Z,22.6
2022-08-26T13:41:55.861Z,22.5
2022-08-26T13:43:58.156Z,19.4
2022-08-26T13:45:58.699Z,15.3
2022-08-26T13:47:59.815Z,14.3
2022-08-26T13:50:01.296Z,17.5
2022-08-26T13:52:02.478Z,12.8
2022-08-26T13:54:03.445Z,11.3
2022-08-26T13:56:06.045Z,9.2
2022-08-26T13:58:06.075Z,6.5
2022-08-26T14:00:07.258Z,4.6
2022-08-26T14:02:08.767Z,3.6
2022-08-26T14:04:10.499Z,2.09
2022-08-26T14:06:11.348Z,1.8
2022-08-26T14:08:12.911Z,-0.3
2022-08-26T14:10:14.455Z,0.4
2022-08-26T14:12:15.702Z,0.7
2022-08-26T14:14:17.431Z,-1.2
2022-08-26T14:16:19.022Z,-3.8
2022-08-26T14:18:19.930Z,-4.3
2022-08-26T14:20:21.497Z,-4.8
2022-08-26T14:22:22.423Z,-6.5
2022-08-26T14:24:23.279Z,-8.3
2022-08-26T14:26:27.986Z,-3.9
2022-08-26T14:32:29.011Z,-11.1
2022-08-26T14:34:30.332Z,-14.4
2022-08-26T14:36:31.299Z,-13.9
2022-08-26T14:38:32.384Z,-10.2
2022-08-26T14:40:33.962Z,-4.69
2022-08-26T14:42:34.168Z,42.7
2022-08-26T14:46:37.183Z,37.7
2022-08-26T14:48:38.351Z,34
2022-08-26T14:50:40.030Z,29.5
2022-08-26T14:52:41.457Z,28.3
2022-08-26T14:54:43.221Z,26.4
2022-08-26T14:56:44.342Z,25.7
2022-08-26T14:58:45.731Z,24.8
2022-08-26T15:00:47.333Z,23.1
2022-08-26T15:02:48.669Z,22.2
2022-08-26T15:04:49.617Z,20.6
2022-08-26T15:08:52.228Z,17.5
2022-08-26T15:10:53.235Z,16.5
2022-08-26T15:12:54.212Z,16
2022-08-26T15:14:55.333Z,16
2022-08-26T15:18:58.158Z,12.2
2022-08-26T15:20:59.387Z,13.7
2022-08-26T15:23:05.923Z,9.3
2022-08-26T15:29:05.122Z,-25.6
2022-08-26T15:31:05.732Z,-25.7
2022-08-26T15:33:06.963Z,-25.6
2022-08-26T15:35:09.347Z,-25.7
2022-08-26T15:39:11.648Z,-25.4
2022-08-26T15:41:13.325Z,-25.5
2022-08-26T15:45:24.942Z,-25.6
2022-08-26T15:47:17.781Z,-25.2
2022-08-26T15:49:18.917Z,-25.8
2022-08-26T15:51:20.461Z,-25.7
2022-08-26T15:52:05.375Z,-25.6
2022-08-26T15:56:06.048Z,-25.5
2022-08-26T15:58:07.322Z,-25.7
2022-08-26T16:00:08.570Z,-25.5
2022-08-26T16:02:09.837Z,-25.8
2022-08-26T16:08:13.591Z,-25.3
2022-08-26T16:10:15.214Z,-25.6
2022-08-26T16:14:17.081Z,-25.5
2022-08-26T16:16:18.158Z,-25.5
2022-08-26T16:18:19.713Z,-25.5
2022-08-26T16:20:21.408Z,-25.7
2022-08-26T16:22:22.549Z,-25.4
2022-08-26T16:24:27.248Z,-25.5
2022-08-26T16:26:24.988Z,-25.5
2022-08-26T16:28:25.992Z,-25.4
2022-08-26T16:30:26.801Z,-25.6
2022-08-26T16:32:31.116Z,-25.6
2022-08-26T16:34:29.431Z,-25.5
2022-08-26T16:36:30.337Z,-25.5
2022-08-26T16:38:31.433Z,-25.7
2022-08-26T16:40:32.627Z,-25.6
2022-08-26T16:44:35.919Z,-25.6
2022-08-26T16:46:37.598Z,-25.3
2022-08-26T16:48:38.518Z,-25.7
2022-08-26T16:50:39.689Z,-25.3
2022-08-26T16:52:41.417Z,-25.7
2022-08-26T16:54:43.187Z,-25.7
2022-08-26T16:56:44.885Z,-25.6
2022-08-26T16:58:46.539Z,-25.6
2022-08-26T17:00:47.565Z,-25.7
2022-08-26T17:06:51.879Z,-25.5
2022-08-26T17:08:52.926Z,-25.8
2022-08-26T17:10:54.924Z,-25.7
2022-08-26T17:12:54.610Z,-25.5
2022-08-26T17:14:56.012Z,-25.7
2022-08-26T17:16:56.986Z,-25.5
2022-08-26T17:20:59.160Z,-25.2
2022-08-26T17:23:00.277Z,-25.6
2022-08-26T17:25:01.522Z,-25.7
2022-08-26T17:27:03.244Z,-25.6
2022-08-26T17:33:10.564Z,-25.6
2022-08-26T17:35:09.452Z,-25.6
2022-08-26T17:37:10.677Z,-25.5
2022-08-26T17:39:12.434Z,-25.7
2022-08-26T17:41:13.397Z,-25.4
2022-08-26T17:43:14.294Z,-26
2022-08-26T17:45:15.672Z,-25.4
2022-08-26T17:47:16.847Z,-25.4
2022-08-26T17:49:18.454Z,-25.6
2022-08-26T17:51:19.993Z,-25.8
2022-08-26T17:53:21.273Z,-25.6
2022-08-26T17:55:22.150Z,-25.5
2022-08-26T17:57:23.896Z,-25.7
2022-08-26T17:59:25.397Z,-25.3
2022-08-26T18:01:26.463Z,-25.7
2022-08-26T18:03:28.221Z,-25.7
2022-08-26T18:05:29.938Z,-25.6
2022-08-26T18:07:30.974Z,-25.7
2022-08-26T18:15:36.015Z,-25.6
2022-08-26T18:17:37.264Z,-25.5
2022-08-26T18:19:39.019Z,-25.7
2022-08-26T18:21:40.614Z,-25.6
2022-08-26T18:23:41.788Z,-25.5
2022-08-26T18:25:43.493Z,-25.8
2022-08-26T18:31:47.762Z,-25.7
2022-08-26T18:33:49.308Z,-25.5
2022-08-26T18:35:50.818Z,-25.7
2022-08-26T18:37:52.558Z,-25.8
2022-08-26T18:39:53.846Z,-25.8
2022-08-26T18:41:54.873Z,-25.5
2022-08-26T18:43:56.130Z,-25.7
2022-08-26T18:45:57.261Z,-25.7
2022-08-26T18:47:58.399Z,-25.6
2022-08-26T18:49:59.909Z,-25.5
2022-08-26T18:52:00.841Z,-25.8
2022-08-26T18:54:02.000Z,-25.7
2022-08-26T18:56:02.904Z,-25.7
2022-08-26T19:02:06.855Z,-26
2022-08-26T19:04:08.262Z,-25.8
2022-08-26T19:08:11.392Z,-25.7
2022-08-26T19:10:12.887Z,-25.7
2022-08-26T19:12:13.748Z,-25.9
2022-08-26T19:14:14.701Z,-26.3
2022-08-26T19:16:15.835Z,-26
2022-08-26T19:18:17.167Z,-25.8
2022-08-26T19:20:18.465Z,-25.9
2022-08-26T19:22:19.931Z,-26.1
2022-08-26T19:24:21.623Z,-25.9
2022-08-26T19:30:26.221Z,-25.9
2022-08-26T19:32:26.788Z,-25.7
2022-08-26T19:34:28.023Z,-25.6
2022-08-26T19:36:29.683Z,-25.9
2022-08-26T19:38:30.615Z,-25.8
2022-08-26T19:40:31.736Z,-25.6
2022-08-26T19:44:35.138Z,-25.7
2022-08-26T19:46:36.626Z,-26.1
2022-08-26T19:48:38.041Z,-25.8
2022-08-26T19:50:39.466Z,-25.7
2022-08-26T19:52:41.296Z,-25.6
2022-08-26T19:54:42.631Z,-26.1
2022-08-26T19:56:45.875Z,-25.9
2022-08-26T19:58:45.577Z,-25.9
2022-08-26T20:00:47.049Z,-25.7
2022-08-26T20:02:48.936Z,-25.6
2022-08-26T20:04:50.186Z,-25.9
2022-08-26T20:06:51.105Z,-25.5
2022-08-26T20:10:54.066Z,-25.5
2022-08-26T20:12:55.792Z,-25.6
2022-08-26T20:14:57.491Z,-25.5
2022-08-26T20:16:59.111Z,-25.7
2022-08-26T20:21:09.795Z,-25.6
2022-08-26T20:23:02.706Z,-25.6
2022-08-26T20:25:03.593Z,-25.9
2022-08-26T20:27:07.643Z,-26.1
2022-08-26T20:29:06.213Z,-25.7
2022-08-26T20:31:07.404Z,-25.6
2022-08-26T20:33:09.133Z,-25.6
2022-08-26T20:35:10.273Z,-25.7
2022-08-26T20:37:11.327Z,-25.5
2022-08-26T20:39:12.515Z,-25.5
2022-08-26T20:41:13.962Z,-25.9
2022-08-26T20:43:14.862Z,-25.4
2022-08-26T20:45:16.252Z,-25.4
2022-08-26T20:49:19.323Z,-25.7
2022-08-26T20:55:24.290Z,-25.5
2022-08-26T20:57:25.169Z,-25.5
2022-08-26T20:59:26.386Z,-25.5
2022-08-26T21:01:27.870Z,-25.5
2022-08-26T21:03:29.826Z,-25.5
2022-08-26T21:05:30.465Z,-25.4
2022-08-26T21:09:33.214Z,-25.6
2022-08-26T21:11:35.029Z,-25.7
2022-08-26T21:13:48.537Z,-25.7
2022-08-26T21:15:37.820Z,-25.4
2022-08-26T21:17:39.609Z,-25.4
2022-08-26T21:19:41.114Z,-25.3
2022-08-26T21:21:42.627Z,-25.5
2022-08-26T21:23:43.663Z,-25.7
2022-08-26T21:25:45.361Z,-25.8
2022-08-26T21:27:47.202Z,-25.4
2022-08-26T21:29:49.034Z,-25.4
2022-08-26T21:31:50.714Z,-25.5
2022-08-26T21:33:51.668Z,-25.5
2022-08-26T21:35:52.805Z,-25.5
2022-08-26T21:37:54.403Z,-25.6
2022-08-26T21:39:55.808Z,-25.4
2022-08-26T21:41:57.185Z,-25.4
2022-08-26T21:43:58.952Z,-25.5
2022-08-26T21:46:00.181Z,-25.6
2022-08-26T21:48:01.446Z,-25.5
2022-08-26T21:54:08.708Z,-25.4
2022-08-26T21:56:07.209Z,-25.7
2022-08-26T21:58:08.345Z,-25.7
2022-08-26T22:00:09.714Z,-25.5
2022-08-26T22:02:11.557Z,-25.4
2022-08-26T22:04:13.143Z,-25.7
2022-08-26T22:06:14.203Z,-25.7
2022-08-26T22:08:15.591Z,-25.5
2022-08-26T22:10:16.663Z,-25.3
2022-08-26T22:14:20.095Z,-25.6
2022-08-26T22:16:21.657Z,-25.5
2022-08-26T22:18:23.161Z,-25.3
2022-08-26T22:20:24.043Z,-25.6
2022-08-26T22:22:25.320Z,-25.6
2022-08-26T22:24:26.844Z,-25.4
2022-08-26T22:26:28.629Z,-25.3
2022-08-26T22:28:30.276Z,-25.4
2022-08-26T22:30:31.160Z,-25.5
2022-08-26T22:36:34.147Z,-25.5
2022-08-26T22:37:17.889Z,-26
2022-08-26T22:41:21.174Z,-25.6
2022-08-26T22:45:23.997Z,-25.5
2022-08-26T22:47:24.862Z,-25.5
2022-08-26T22:49:25.923Z,-25.5
2022-08-26T22:51:26.890Z,-25.5
2022-08-26T22:53:28.459Z,-25.3
2022-08-26T22:55:29.486Z,-25.4
2022-08-26T22:57:30.980Z,-25.6
2022-08-26T23:01:34.233Z,-25.2
2022-08-26T23:03:35.419Z,-25.5
2022-08-26T23:05:37.218Z,-25.3
2022-08-26T23:07:38.282Z,-25.6
2022-08-26T23:13:42.282Z,-25.6
2022-08-26T23:15:43.450Z,-25.5
2022-08-26T23:17:44.806Z,-25.8
2022-08-26T23:19:46.571Z,-25.6
2022-08-26T23:21:48.252Z,-25.3
2022-08-26T23:23:49.272Z,-25.3
2022-08-26T23:25:50.711Z,-25.6
2022-08-26T23:27:52.361Z,-25.5
2022-08-26T23:29:54.039Z,-25.5
2022-08-26T23:31:55.856Z,-25.2
2022-08-26T23:33:57.637Z,-25.6
2022-08-26T23:35:58.510Z,-25.7
2022-08-26T23:37:59.515Z,-25.6
2022-08-26T23:40:00.595Z,-25.5
2022-08-26T23:42:01.676Z,-25.5
2022-08-26T23:44:03.632Z,-25.6
2022-08-26T23:46:04.249Z,-25.3
2022-08-26T23:48:05.117Z,-25.4
2022-08-26T23:50:06.459Z,-25.6
2022-08-26T23:52:07.748Z,-25.4
2022-08-26T23:54:09.317Z,-25.7
2022-08-26T23:56:10.683Z,-25.3
2022-08-26T23:58:11.768Z,-25.6
